Terminal Aerodrome Forecast
Issued by NWS Blacksburg, VA

Current Version | Previous Version | Graphics & Text | Print | Product List | Glossary On
Versions: 1 2 3 4 5 6 7 8 9 10 11 12 13 14 15 16 17 18 19 20 21 22 23 24 25 26 27 28 29 30 31 32
000
FTUS41 KRNK 280745 AAA
TAFBLF
TAF AMD
KBLF 280745Z 2808/2906 25006KT P6SM BKN009
     FM281000 25003KT P6SM SCT012 BKN100
     FM281600 30006KT P6SM BKN035
     FM290100 VRB03KT P6SM BKN250=

USA.gov is the U.S. government's official web portal to all federal, state and local government web resources and services.